Accueil
METAR-TAF:

METAR-TAF

Aéroports :

Aéroport de Weeze

Weeze, Allemagne

latitude: 51-36-09N, longitude: 006-08-32E, altitude: 32 m

Observation

Le bulletin a été fait il y a 4 heures et 36 minutes, à 21:50 UTC
Vent calme
Température 16°C
Humidité 100%
Pression 1022 hPa
Visibilité 10 km ou plus
pas de nuages en-dessous de 1500 mètres et pas de cumulonimbus.

METAR: EDLV 182150Z 00000KT CAVOK 16/16 Q1022

Heure: 04:26 (02:26 UTC)

Prévision

Le bulletin a été fait il y a 9 heures et 26 minutes, à 17:00 UTC
Prévision valable du 18 à 18 UTC au 19 à 18 UTC
Vent 8 kt de ouest
Visibilité 10 km ou plus
Nuages fragmentés à une hauteur de 4000 ft
Evoluant progressivement
du 18 à 18 UTC au 18 à 20 UTC
Vent 3 kt de direction variable
Evoluant progressivement
du 19 à 05 UTC au 19 à 08 UTC
Vent 8 kt de sud-ouest

TAF: EDLV 181700Z 1818/1918 28008KT 9999 BKN040 BECMG 1818/1820 VRB03KT BECMG 1905/1908 23008KT

Observations et prévisions météorologiques de plus de 4000 aéroports (messages METAR et TAF).

Les stations disponibles sont représentées par des disques jaunes et rouges sur la carte.

Passer la souris dessus pour voir le nom de la station.

Cliquer dessus pour voir les observations et prévisions météorologiques.

Pour changer de carte: cliquez sur les boutons verts avec une croix noire pour zoomer, sur le bouton vert avec un tiret pour effectuer un zoom arrière, ou sur les flèches vertes pour les cartes adjacentes.


METAR-TAF: